Airfield :
LOGIN :

Register | Disclaimer

   EN    FR    IT 

 










Legend :    VFR   Marginal VFR   IFR   Intensive IFR   Very Intensive IFR
Visi :
Ceiling :
>= 8 km
>= 3000ft
5 to 8 km
1000 to 3000 ft
1500m to 5 km
500 to 1000 ft
800 to 1500m
200 to 500 ft
< 800m
< 200 ft
Symbols :   Thunderstorms  Fog  Heavy snow  Heavy precipitations  Wind > 20 kt
SIGMETs :     Misc.  Thunderstorms  Icing  Turbulence  Mountain Waves  Volcanic Ashes






- Airport Elevation : 1674 ft
- IATA code : BRN


LSZB - Bern Belp

CURRENT METAR :
  • 211450Z 07004KT 030V160 1500 -RASN OVC005 02/01 Q1018 RERA

EXPIRED METARs :
  • 211420Z 18004KT 150V210 5000 -SHRASN BKN008 OVC010 03/01 Q1018
  • 211350Z 16007KT 090V180 9999 -DZ FEW012 BKN034 04/01 Q1018
  • 211320Z 14006KT 110V180 9999 FEW030 BKN035 BKN040 03/01 Q1017
  • 211250Z 15007KT 9999 FEW011 BKN025 03/02 Q1018
  • 211220Z 08006KT 040V120 9999 FEW007 SCT033 BKN050 03/02 Q1017
  • 211150Z VRB05KT 9999 -RA SCT012 BKN014 04/01 Q1017
  • 211120Z 14005KT 110V190 9999 VCSH FEW006 SCT032 BKN066 04/03 Q1017
  • 211050Z 26004KT 170V330 9999 4500S VCSH FEW012 SCT030 BKN042 03/01 Q1017 RERASN
  • 211020Z 24011KT 5000 SHRA FEW009 SCT011 BKN050 03/01 Q1017

TAF TAF LSZB
Valid from the 21 at 15:00 until the 22 at 00:00 UTC


211425Z 2115/2124 16007KT 9999 FEW030TCU BKN040
TEMPO 2115/2121 4000 SHSNRA
PROB40
TEMPO 2115/2119 31010KT 2500 SHSN BKN008
ATIS : +41 22 417 40 76



MET'MAP, your aeronautical weather chart ! - Copyright ORBIFLY December 2007 - Disclaimer

ORBIFLY MET'MAP TEAM :

Programming & Development : Alexandra Zaïnal
Original concept : Baudouin d'Aumeries
Technical & hardware support : Manuel Goepfert
Assistance : Marc-Olivier Méhu




SOURCES & CREDITS :

   NOAA